sensor_id;sensor_type;location;lat;lon;timestamp;P1;durP1;ratioP1;P2;durP2;ratioP2
9140;SDS011;46330;50.822;7.126;2023-12-20T00:01:19;4.07;;;3.20;;
9140;SDS011;46330;50.822;7.126;2023-12-20T00:03:48;4.38;;;3.30;;
9140;SDS011;46330;50.822;7.126;2023-12-20T00:06:16;4.47;;;3.08;;
9140;SDS011;46330;50.822;7.126;2023-12-20T00:08:45;4.65;;;3.15;;
9140;SDS011;46330;50.822;7.126;2023-12-20T00:11:14;6.22;;;3.58;;
9140;SDS011;46330;50.822;7.126;2023-12-20T00:13:42;5.60;;;3.33;;
9140;SDS011;46330;50.822;7.126;2023-12-20T00:16:12;7.47;;;3.25;;
9140;SDS011;46330;50.822;7.126;2023-12-20T00:18:40;5.38;;;3.63;;
9140;SDS011;46330;50.822;7.126;2023-12-20T00:21:08;5.10;;;3.47;;
9140;SDS011;46330;50.822;7.126;2023-12-20T00:23:36;7.75;;;3.85;;
9140;SDS011;46330;50.822;7.126;2023-12-20T00:26:05;6.18;;;3.70;;
9140;SDS011;46330;50.822;7.126;2023-12-20T00:28:33;7.20;;;3.85;;
9140;SDS011;46330;50.822;7.126;2023-12-20T00:31:01;6.88;;;4.13;;
9140;SDS011;46330;50.822;7.126;2023-12-20T00:33:29;8.57;;;4.20;;
9140;SDS011;46330;50.822;7.126;2023-12-20T00:35:57;6.20;;;4.30;;
9140;SDS011;46330;50.822;7.126;2023-12-20T00:38:25;6.68;;;4.40;;
9140;SDS011;46330;50.822;7.126;2023-12-20T00:40:53;6.45;;;4.22;;
9140;SDS011;46330;50.822;7.126;2023-12-20T00:43:22;8.75;;;4.68;;
9140;SDS011;46330;50.822;7.126;2023-12-20T00:45:50;7.30;;;4.57;;
9140;SDS011;46330;50.822;7.126;2023-12-20T00:48:18;7.95;;;4.95;;
9140;SDS011;46330;50.822;7.126;2023-12-20T00:50:47;7.43;;;4.43;;
9140;SDS011;46330;50.822;7.126;2023-12-20T00:53:15;6.28;;;4.00;;
9140;SDS011;46330;50.822;7.126;2023-12-20T00:55:42;8.98;;;4.68;;
9140;SDS011;46330;50.822;7.126;2023-12-20T00:58:11;8.32;;;4.78;;
9140;SDS011;46330;50.822;7.126;2023-12-20T01:00:43;9.98;;;5.40;;
9140;SDS011;46330;50.822;7.126;2023-12-20T01:03:11;9.98;;;5.57;;
9140;SDS011;46330;50.822;7.126;2023-12-20T01:05:40;8.60;;;5.47;;
9140;SDS011;46330;50.822;7.126;2023-12-20T01:08:08;8.63;;;5.13;;
9140;SDS011;46330;50.822;7.126;2023-12-20T01:10:35;12.20;;;6.57;;
9140;SDS011;46330;50.822;7.126;2023-12-20T01:13:03;13.88;;;7.13;;
9140;SDS011;46330;50.822;7.126;2023-12-20T01:15:31;13.23;;;7.30;;
9140;SDS011;46330;50.822;7.126;2023-12-20T01:18:00;14.93;;;8.05;;
9140;SDS011;46330;50.822;7.126;2023-12-20T01:20:29;12.45;;;7.45;;
9140;SDS011;46330;50.822;7.126;2023-12-20T01:22:56;12.77;;;7.97;;
9140;SDS011;46330;50.822;7.126;2023-12-20T01:25:24;12.63;;;7.03;;
9140;SDS011;46330;50.822;7.126;2023-12-20T01:27:52;10.45;;;6.38;;
9140;SDS011;46330;50.822;7.126;2023-12-20T01:30:20;12.95;;;6.90;;
9140;SDS011;46330;50.822;7.126;2023-12-20T01:32:48;9.00;;;5.82;;
9140;SDS011;46330;50.822;7.126;2023-12-20T01:35:17;10.32;;;6.13;;
9140;SDS011;46330;50.822;7.126;2023-12-20T01:37:45;11.50;;;6.47;;
9140;SDS011;46330;50.822;7.126;2023-12-20T01:40:14;9.27;;;5.57;;
9140;SDS011;46330;50.822;7.126;2023-12-20T01:42:43;9.55;;;5.75;;
9140;SDS011;46330;50.822;7.126;2023-12-20T01:45:10;9.75;;;5.30;;
9140;SDS011;46330;50.822;7.126;2023-12-20T01:47:38;9.27;;;5.80;;
9140;SDS011;46330;50.822;7.126;2023-12-20T01:50:07;10.55;;;6.00;;
9140;SDS011;46330;50.822;7.126;2023-12-20T01:52:37;10.48;;;5.55;;
9140;SDS011;46330;50.822;7.126;2023-12-20T01:55:05;9.73;;;6.13;;
9140;SDS011;46330;50.822;7.126;2023-12-20T01:57:40;10.88;;;5.80;;
9140;SDS011;46330;50.822;7.126;2023-12-20T02:00:09;11.52;;;5.80;;
9140;SDS011;46330;50.822;7.126;2023-12-20T02:02:39;13.15;;;6.38;;
9140;SDS011;46330;50.822;7.126;2023-12-20T02:05:07;11.82;;;5.85;;
9140;SDS011;46330;50.822;7.126;2023-12-20T02:07:37;11.45;;;6.05;;
9140;SDS011;46330;50.822;7.126;2023-12-20T02:10:06;10.77;;;6.75;;
9140;SDS011;46330;50.822;7.126;2023-12-20T02:12:34;13.82;;;7.45;;
9140;SDS011;46330;50.822;7.126;2023-12-20T02:15:03;10.75;;;6.68;;
9140;SDS011;46330;50.822;7.126;2023-12-20T02:17:31;14.32;;;6.75;;
9140;SDS011;46330;50.822;7.126;2023-12-20T02:20:00;13.30;;;7.63;;
9140;SDS011;46330;50.822;7.126;2023-12-20T02:22:30;16.75;;;7.30;;
9140;SDS011;46330;50.822;7.126;2023-12-20T02:24:58;16.08;;;7.78;;
9140;SDS011;46330;50.822;7.126;2023-12-20T02:27:26;16.17;;;8.55;;
9140;SDS011;46330;50.822;7.126;2023-12-20T02:29:55;16.77;;;7.47;;
9140;SDS011;46330;50.822;7.126;2023-12-20T02:32:23;17.98;;;7.70;;
9140;SDS011;46330;50.822;7.126;2023-12-20T02:34:53;13.35;;;7.15;;
9140;SDS011;46330;50.822;7.126;2023-12-20T02:37:21;16.02;;;6.30;;
9140;SDS011;46330;50.822;7.126;2023-12-20T02:39:50;10.90;;;5.90;;
9140;SDS011;46330;50.822;7.126;2023-12-20T02:42:18;16.83;;;6.60;;
9140;SDS011;46330;50.822;7.126;2023-12-20T02:44:46;13.15;;;4.53;;
9140;SDS011;46330;50.822;7.126;2023-12-20T02:47:14;13.23;;;5.20;;
9140;SDS011;46330;50.822;7.126;2023-12-20T02:49:42;17.25;;;4.82;;
9140;SDS011;46330;50.822;7.126;2023-12-20T02:52:10;16.42;;;6.40;;
9140;SDS011;46330;50.822;7.126;2023-12-20T02:54:38;10.32;;;3.90;;
9140;SDS011;46330;50.822;7.126;2023-12-20T02:57:08;13.75;;;3.65;;
9140;SDS011;46330;50.822;7.126;2023-12-20T02:59:36;5.88;;;3.08;;
9140;SDS011;46330;50.822;7.126;2023-12-20T03:02:03;10.10;;;2.85;;
9140;SDS011;46330;50.822;7.126;2023-12-20T03:04:32;8.25;;;2.72;;
9140;SDS011;46330;50.822;7.126;2023-12-20T03:07:00;13.48;;;2.17;;
9140;SDS011;46330;50.822;7.126;2023-12-20T03:09:28;7.35;;;2.33;;
9140;SDS011;46330;50.822;7.126;2023-12-20T03:12:04;8.68;;;2.40;;
9140;SDS011;46330;50.822;7.126;2023-12-20T03:14:33;10.73;;;2.30;;
9140;SDS011;46330;50.822;7.126;2023-12-20T03:17:01;6.25;;;2.17;;
9140;SDS011;46330;50.822;7.126;2023-12-20T03:19:29;8.00;;;2.55;;
9140;SDS011;46330;50.822;7.126;2023-12-20T03:21:57;8.18;;;2.92;;
9140;SDS011;46330;50.822;7.126;2023-12-20T03:24:27;15.43;;;3.15;;
9140;SDS011;46330;50.822;7.126;2023-12-20T03:26:55;9.73;;;2.78;;
9140;SDS011;46330;50.822;7.126;2023-12-20T03:29:23;17.30;;;2.88;;
9140;SDS011;46330;50.822;7.126;2023-12-20T03:31:52;13.82;;;2.35;;
9140;SDS011;46330;50.822;7.126;2023-12-20T03:34:20;10.50;;;3.00;;
9140;SDS011;46330;50.822;7.126;2023-12-20T03:36:48;4.15;;;1.70;;
9140;SDS011;46330;50.822;7.126;2023-12-20T03:39:16;7.93;;;2.05;;
9140;SDS011;46330;50.822;7.126;2023-12-20T03:41:44;9.73;;;1.88;;
9140;SDS011;46330;50.822;7.126;2023-12-20T03:44:12;7.72;;;2.30;;
9140;SDS011;46330;50.822;7.126;2023-12-20T03:46:40;11.80;;;2.83;;
9140;SDS011;46330;50.822;7.126;2023-12-20T03:49:09;12.40;;;2.08;;
9140;SDS011;46330;50.822;7.126;2023-12-20T03:51:37;6.90;;;2.40;;
9140;SDS011;46330;50.822;7.126;2023-12-20T03:54:05;14.70;;;2.60;;
9140;SDS011;46330;50.822;7.126;2023-12-20T03:56:33;9.23;;;2.40;;
9140;SDS011;46330;50.822;7.126;2023-12-20T03:59:01;11.25;;;2.58;;
9140;SDS011;46330;50.822;7.126;2023-12-20T04:01:29;8.93;;;2.30;;
9140;SDS011;46330;50.822;7.126;2023-12-20T04:03:57;7.40;;;2.13;;
9140;SDS011;46330;50.822;7.126;2023-12-20T04:06:26;11.95;;;4.10;;
9140;SDS011;46330;50.822;7.126;2023-12-20T04:08:54;11.13;;;2.80;;
9140;SDS011;46330;50.822;7.126;2023-12-20T04:11:22;9.25;;;2.35;;
9140;SDS011;46330;50.822;7.126;2023-12-20T04:13:50;9.18;;;3.15;;
9140;SDS011;46330;50.822;7.126;2023-12-20T04:16:18;7.93;;;2.40;;
9140;SDS011;46330;50.822;7.126;2023-12-20T04:18:46;10.57;;;2.58;;
9140;SDS011;46330;50.822;7.126;2023-12-20T04:21:14;8.25;;;2.30;;
9140;SDS011;46330;50.822;7.126;2023-12-20T04:23:43;10.52;;;2.88;;
9140;SDS011;46330;50.822;7.126;2023-12-20T04:26:11;11.25;;;2.85;;
9140;SDS011;46330;50.822;7.126;2023-12-20T04:28:39;10.02;;;2.38;;
9140;SDS011;46330;50.822;7.126;2023-12-20T04:31:07;4.85;;;2.15;;
9140;SDS011;46330;50.822;7.126;2023-12-20T04:33:36;10.30;;;2.85;;
9140;SDS011;46330;50.822;7.126;2023-12-20T04:36:04;7.38;;;2.55;;
9140;SDS011;46330;50.822;7.126;2023-12-20T04:38:32;10.25;;;2.33;;
9140;SDS011;46330;50.822;7.126;2023-12-20T04:41:02;7.13;;;2.55;;
9140;SDS011;46330;50.822;7.126;2023-12-20T04:43:30;12.77;;;3.83;;
9140;SDS011;46330;50.822;7.126;2023-12-20T04:45:58;9.00;;;2.88;;
9140;SDS011;46330;50.822;7.126;2023-12-20T04:48:26;7.78;;;2.38;;
9140;SDS011;46330;50.822;7.126;2023-12-20T04:50:54;9.50;;;2.65;;
9140;SDS011;46330;50.822;7.126;2023-12-20T04:53:22;10.68;;;2.90;;
9140;SDS011;46330;50.822;7.126;2023-12-20T04:55:50;17.30;;;2.97;;
9140;SDS011;46330;50.822;7.126;2023-12-20T04:58:19;12.50;;;2.88;;
9140;SDS011;46330;50.822;7.126;2023-12-20T05:00:47;15.70;;;3.50;;
9140;SDS011;46330;50.822;7.126;2023-12-20T05:03:15;9.32;;;2.58;;
9140;SDS011;46330;50.822;7.126;2023-12-20T05:05:43;8.98;;;2.90;;
9140;SDS011;46330;50.822;7.126;2023-12-20T05:08:11;8.18;;;2.58;;
9140;SDS011;46330;50.822;7.126;2023-12-20T05:10:39;8.40;;;2.90;;
9140;SDS011;46330;50.822;7.126;2023-12-20T05:13:07;12.18;;;3.40;;
9140;SDS011;46330;50.822;7.126;2023-12-20T05:15:37;8.85;;;3.42;;
9140;SDS011;46330;50.822;7.126;2023-12-20T05:18:05;11.60;;;3.45;;
9140;SDS011;46330;50.822;7.126;2023-12-20T05:20:33;14.40;;;3.70;;
9140;SDS011;46330;50.822;7.126;2023-12-20T05:23:01;9.63;;;3.50;;
9140;SDS011;46330;50.822;7.126;2023-12-20T05:25:30;14.55;;;3.20;;
9140;SDS011;46330;50.822;7.126;2023-12-20T05:27:58;12.25;;;3.13;;
9140;SDS011;46330;50.822;7.126;2023-12-20T05:30:26;14.07;;;3.22;;
9140;SDS011;46330;50.822;7.126;2023-12-20T05:32:55;10.60;;;3.00;;
9140;SDS011;46330;50.822;7.126;2023-12-20T05:35:23;6.53;;;3.00;;
9140;SDS011;46330;50.822;7.126;2023-12-20T05:37:51;8.65;;;3.13;;
9140;SDS011;46330;50.822;7.126;2023-12-20T05:40:19;13.23;;;3.70;;
9140;SDS011;46330;50.822;7.126;2023-12-20T05:42:47;9.07;;;3.03;;
9140;SDS011;46330;50.822;7.126;2023-12-20T05:45:15;13.10;;;3.47;;
9140;SDS011;46330;50.822;7.126;2023-12-20T05:47:43;9.77;;;3.17;;
9140;SDS011;46330;50.822;7.126;2023-12-20T05:50:13;10.77;;;3.10;;
9140;SDS011;46330;50.822;7.126;2023-12-20T05:52:41;15.38;;;3.85;;
9140;SDS011;46330;50.822;7.126;2023-12-20T05:55:09;12.60;;;4.00;;
9140;SDS011;46330;50.822;7.126;2023-12-20T05:57:38;10.55;;;3.22;;
9140;SDS011;46330;50.822;7.126;2023-12-20T06:00:07;12.10;;;3.40;;
9140;SDS011;46330;50.822;7.126;2023-12-20T06:02:39;13.98;;;3.20;;
9140;SDS011;46330;50.822;7.126;2023-12-20T06:05:07;8.65;;;3.50;;
9140;SDS011;46330;50.822;7.126;2023-12-20T06:07:37;9.63;;;2.70;;
9140;SDS011;46330;50.822;7.126;2023-12-20T06:10:05;11.95;;;3.17;;
9140;SDS011;46330;50.822;7.126;2023-12-20T06:12:33;8.18;;;2.95;;
9140;SDS011;46330;50.822;7.126;2023-12-20T06:15:02;18.42;;;3.58;;
9140;SDS011;46330;50.822;7.126;2023-12-20T06:17:33;9.75;;;3.60;;
9140;SDS011;46330;50.822;7.126;2023-12-20T06:20:01;18.08;;;4.68;;
9140;SDS011;46330;50.822;7.126;2023-12-20T06:22:34;17.90;;;3.60;;
9140;SDS011;46330;50.822;7.126;2023-12-20T06:25:04;15.18;;;3.75;;
9140;SDS011;46330;50.822;7.126;2023-12-20T06:27:33;10.10;;;3.60;;
9140;SDS011;46330;50.822;7.126;2023-12-20T06:30:01;12.63;;;3.35;;
9140;SDS011;46330;50.822;7.126;2023-12-20T06:32:29;11.45;;;3.22;;
9140;SDS011;46330;50.822;7.126;2023-12-20T06:34:57;12.10;;;3.63;;
9140;SDS011;46330;50.822;7.126;2023-12-20T06:37:25;12.65;;;3.35;;
9140;SDS011;46330;50.822;7.126;2023-12-20T06:39:53;12.57;;;3.90;;
9140;SDS011;46330;50.822;7.126;2023-12-20T06:42:24;12.05;;;3.15;;
9140;SDS011;46330;50.822;7.126;2023-12-20T06:44:52;12.75;;;3.65;;
9140;SDS011;46330;50.822;7.126;2023-12-20T06:47:20;12.73;;;3.72;;
9140;SDS011;46330;50.822;7.126;2023-12-20T06:49:48;8.00;;;3.30;;
9140;SDS011;46330;50.822;7.126;2023-12-20T06:52:17;13.50;;;3.20;;
9140;SDS011;46330;50.822;7.126;2023-12-20T06:54:45;8.77;;;3.63;;
9140;SDS011;46330;50.822;7.126;2023-12-20T06:57:13;8.55;;;3.00;;
9140;SDS011;46330;50.822;7.126;2023-12-20T06:59:42;12.05;;;3.08;;
9140;SDS011;46330;50.822;7.126;2023-12-20T07:02:10;12.30;;;3.53;;
9140;SDS011;46330;50.822;7.126;2023-12-20T07:04:41;20.98;;;4.15;;
9140;SDS011;46330;50.822;7.126;2023-12-20T07:07:09;12.75;;;4.18;;
9140;SDS011;46330;50.822;7.126;2023-12-20T07:09:37;10.57;;;3.15;;
9140;SDS011;46330;50.822;7.126;2023-12-20T07:12:05;14.35;;;3.80;;
9140;SDS011;46330;50.822;7.126;2023-12-20T07:14:33;12.93;;;3.47;;
9140;SDS011;46330;50.822;7.126;2023-12-20T07:17:03;14.10;;;3.10;;
9140;SDS011;46330;50.822;7.126;2023-12-20T07:19:30;12.60;;;3.60;;
9140;SDS011;46330;50.822;7.126;2023-12-20T07:21:59;14.23;;;3.42;;
9140;SDS011;46330;50.822;7.126;2023-12-20T07:24:27;10.63;;;3.15;;
9140;SDS011;46330;50.822;7.126;2023-12-20T07:26:55;11.93;;;3.22;;
9140;SDS011;46330;50.822;7.126;2023-12-20T07:29:23;10.68;;;2.97;;
9140;SDS011;46330;50.822;7.126;2023-12-20T07:31:52;12.45;;;3.00;;
9140;SDS011;46330;50.822;7.126;2023-12-20T07:34:21;10.75;;;3.17;;
9140;SDS011;46330;50.822;7.126;2023-12-20T07:36:50;15.30;;;3.38;;
9140;SDS011;46330;50.822;7.126;2023-12-20T07:39:18;13.95;;;3.25;;
9140;SDS011;46330;50.822;7.126;2023-12-20T07:41:46;8.95;;;2.65;;
9140;SDS011;46330;50.822;7.126;2023-12-20T07:44:14;13.05;;;2.90;;
9140;SDS011;46330;50.822;7.126;2023-12-20T07:46:42;9.98;;;3.05;;
9140;SDS011;46330;50.822;7.126;2023-12-20T07:49:10;11.32;;;3.60;;
9140;SDS011;46330;50.822;7.126;2023-12-20T07:51:39;8.20;;;2.78;;
9140;SDS011;46330;50.822;7.126;2023-12-20T07:54:07;10.50;;;3.03;;
9140;SDS011;46330;50.822;7.126;2023-12-20T07:56:35;16.92;;;3.40;;
9140;SDS011;46330;50.822;7.126;2023-12-20T07:59:03;15.82;;;3.30;;
9140;SDS011;46330;50.822;7.126;2023-12-20T08:01:37;10.57;;;2.90;;
9140;SDS011;46330;50.822;7.126;2023-12-20T08:04:06;8.43;;;2.95;;
9140;SDS011;46330;50.822;7.126;2023-12-20T08:06:34;9.35;;;2.80;;
9140;SDS011;46330;50.822;7.126;2023-12-20T08:09:03;10.90;;;2.88;;
9140;SDS011;46330;50.822;7.126;2023-12-20T08:11:32;8.57;;;2.15;;
9140;SDS011;46330;50.822;7.126;2023-12-20T08:14:00;10.38;;;3.05;;
9140;SDS011;46330;50.822;7.126;2023-12-20T08:16:28;11.95;;;2.67;;
9140;SDS011;46330;50.822;7.126;2023-12-20T08:18:56;10.20;;;2.83;;
9140;SDS011;46330;50.822;7.126;2023-12-20T08:21:24;10.00;;;2.53;;
9140;SDS011;46330;50.822;7.126;2023-12-20T08:23:52;10.20;;;2.53;;
9140;SDS011;46330;50.822;7.126;2023-12-20T08:26:21;8.95;;;2.65;;
9140;SDS011;46330;50.822;7.126;2023-12-20T08:28:50;8.23;;;2.45;;
9140;SDS011;46330;50.822;7.126;2023-12-20T08:31:19;8.52;;;2.80;;
9140;SDS011;46330;50.822;7.126;2023-12-20T08:33:48;11.50;;;2.97;;
9140;SDS011;46330;50.822;7.126;2023-12-20T08:36:17;10.13;;;2.05;;
9140;SDS011;46330;50.822;7.126;2023-12-20T08:38:45;11.82;;;2.60;;
9140;SDS011;46330;50.822;7.126;2023-12-20T08:41:13;6.45;;;2.28;;
9140;SDS011;46330;50.822;7.126;2023-12-20T08:43:43;8.18;;;2.08;;
9140;SDS011;46330;50.822;7.126;2023-12-20T08:46:11;9.50;;;2.85;;
9140;SDS011;46330;50.822;7.126;2023-12-20T08:48:39;16.05;;;4.18;;
9140;SDS011;46330;50.822;7.126;2023-12-20T08:51:07;11.50;;;3.00;;
9140;SDS011;46330;50.822;7.126;2023-12-20T08:53:36;13.73;;;3.28;;
9140;SDS011;46330;50.822;7.126;2023-12-20T08:56:04;10.35;;;2.88;;
9140;SDS011;46330;50.822;7.126;2023-12-20T08:58:33;9.13;;;2.42;;
9140;SDS011;46330;50.822;7.126;2023-12-20T09:01:04;9.45;;;2.80;;
9140;SDS011;46330;50.822;7.126;2023-12-20T09:03:33;7.63;;;2.50;;
9140;SDS011;46330;50.822;7.126;2023-12-20T09:06:04;11.82;;;2.88;;
9140;SDS011;46330;50.822;7.126;2023-12-20T09:08:37;9.27;;;2.40;;
9140;SDS011;46330;50.822;7.126;2023-12-20T09:11:08;9.20;;;2.33;;
9140;SDS011;46330;50.822;7.126;2023-12-20T09:13:37;12.63;;;3.63;;
9140;SDS011;46330;50.822;7.126;2023-12-20T09:16:08;12.20;;;2.90;;
9140;SDS011;46330;50.822;7.126;2023-12-20T09:18:36;8.43;;;2.45;;
9140;SDS011;46330;50.822;7.126;2023-12-20T09:21:04;9.68;;;2.75;;
9140;SDS011;46330;50.822;7.126;2023-12-20T09:23:32;11.32;;;2.60;;
9140;SDS011;46330;50.822;7.126;2023-12-20T09:26:00;8.20;;;2.22;;
9140;SDS011;46330;50.822;7.126;2023-12-20T09:28:28;9.02;;;2.58;;
9140;SDS011;46330;50.822;7.126;2023-12-20T09:30:56;15.00;;;2.85;;
9140;SDS011;46330;50.822;7.126;2023-12-20T09:33:26;10.27;;;2.78;;
9140;SDS011;46330;50.822;7.126;2023-12-20T09:35:54;6.20;;;2.10;;
9140;SDS011;46330;50.822;7.126;2023-12-20T09:38:22;7.32;;;2.15;;
9140;SDS011;46330;50.822;7.126;2023-12-20T09:40:51;11.95;;;2.78;;
9140;SDS011;46330;50.822;7.126;2023-12-20T09:43:20;11.25;;;3.30;;
9140;SDS011;46330;50.822;7.126;2023-12-20T09:45:52;8.10;;;2.55;;
9140;SDS011;46330;50.822;7.126;2023-12-20T09:48:21;6.05;;;1.92;;
9140;SDS011;46330;50.822;7.126;2023-12-20T09:50:52;10.27;;;2.20;;
9140;SDS011;46330;50.822;7.126;2023-12-20T09:53:20;12.10;;;2.60;;
9140;SDS011;46330;50.822;7.126;2023-12-20T09:55:50;9.63;;;2.20;;
9140;SDS011;46330;50.822;7.126;2023-12-20T09:58:20;6.03;;;2.10;;
9140;SDS011;46330;50.822;7.126;2023-12-20T10:00:48;9.57;;;2.45;;
9140;SDS011;46330;50.822;7.126;2023-12-20T10:03:17;9.02;;;2.08;;
9140;SDS011;46330;50.822;7.126;2023-12-20T10:05:50;11.05;;;2.70;;
9140;SDS011;46330;50.822;7.126;2023-12-20T10:08:24;6.63;;;2.10;;
9140;SDS011;46330;50.822;7.126;2023-12-20T10:10:52;6.20;;;2.28;;
9140;SDS011;46330;50.822;7.126;2023-12-20T10:13:22;8.68;;;2.53;;
9140;SDS011;46330;50.822;7.126;2023-12-20T10:15:50;9.73;;;2.20;;
9140;SDS011;46330;50.822;7.126;2023-12-20T10:18:18;7.65;;;2.20;;
9140;SDS011;46330;50.822;7.126;2023-12-20T10:20:47;10.35;;;2.35;;
9140;SDS011;46330;50.822;7.126;2023-12-20T10:23:16;13.35;;;2.13;;
9140;SDS011;46330;50.822;7.126;2023-12-20T10:25:54;8.60;;;2.35;;
9140;SDS011;46330;50.822;7.126;2023-12-20T10:28:23;6.22;;;2.35;;
9140;SDS011;46330;50.822;7.126;2023-12-20T10:30:54;8.45;;;2.55;;
9140;SDS011;46330;50.822;7.126;2023-12-20T10:33:24;12.65;;;2.53;;
9140;SDS011;46330;50.822;7.126;2023-12-20T10:35:53;12.05;;;2.78;;
9140;SDS011;46330;50.822;7.126;2023-12-20T10:38:23;8.95;;;2.30;;
9140;SDS011;46330;50.822;7.126;2023-12-20T10:40:53;9.10;;;2.40;;
9140;SDS011;46330;50.822;7.126;2023-12-20T10:43:24;10.85;;;2.63;;
9140;SDS011;46330;50.822;7.126;2023-12-20T10:45:54;10.68;;;2.80;;
9140;SDS011;46330;50.822;7.126;2023-12-20T10:48:22;11.98;;;2.40;;
9140;SDS011;46330;50.822;7.126;2023-12-20T10:50:59;7.68;;;2.15;;
9140;SDS011;46330;50.822;7.126;2023-12-20T10:53:30;12.27;;;2.55;;
9140;SDS011;46330;50.822;7.126;2023-12-20T10:55:59;15.13;;;2.65;;
9140;SDS011;46330;50.822;7.126;2023-12-20T10:58:32;8.77;;;2.35;;
9140;SDS011;46330;50.822;7.126;2023-12-20T11:01:06;9.25;;;2.60;;
9140;SDS011;46330;50.822;7.126;2023-12-20T11:03:35;6.97;;;2.40;;
9140;SDS011;46330;50.822;7.126;2023-12-20T11:06:07;10.68;;;2.17;;
9140;SDS011;46330;50.822;7.126;2023-12-20T11:08:47;8.70;;;2.20;;
9140;SDS011;46330;50.822;7.126;2023-12-20T11:11:20;6.05;;;2.08;;
9140;SDS011;46330;50.822;7.126;2023-12-20T11:13:54;10.55;;;3.50;;
9140;SDS011;46330;50.822;7.126;2023-12-20T11:16:25;9.25;;;2.20;;
9140;SDS011;46330;50.822;7.126;2023-12-20T11:19:06;9.82;;;2.83;;
9140;SDS011;46330;50.822;7.126;2023-12-20T11:21:34;6.30;;;2.42;;
9140;SDS011;46330;50.822;7.126;2023-12-20T11:24:04;15.43;;;2.70;;
9140;SDS011;46330;50.822;7.126;2023-12-20T11:26:33;13.95;;;2.65;;
9140;SDS011;46330;50.822;7.126;2023-12-20T11:31:59;14.90;;;2.33;;
9140;SDS011;46330;50.822;7.126;2023-12-20T11:34:27;9.00;;;2.63;;
9140;SDS011;46330;50.822;7.126;2023-12-20T11:36:59;8.93;;;2.35;;
9140;SDS011;46330;50.822;7.126;2023-12-20T11:39:29;10.80;;;2.47;;
9140;SDS011;46330;50.822;7.126;2023-12-20T11:42:03;11.68;;;2.92;;
9140;SDS011;46330;50.822;7.126;2023-12-20T11:44:32;9.07;;;2.53;;
9140;SDS011;46330;50.822;7.126;2023-12-20T11:47:00;15.38;;;2.70;;
9140;SDS011;46330;50.822;7.126;2023-12-20T11:49:28;10.70;;;2.55;;
9140;SDS011;46330;50.822;7.126;2023-12-20T11:51:57;6.15;;;2.60;;
9140;SDS011;46330;50.822;7.126;2023-12-20T11:54:26;11.05;;;2.13;;
9140;SDS011;46330;50.822;7.126;2023-12-20T11:56:57;5.32;;;2.17;;
9140;SDS011;46330;50.822;7.126;2023-12-20T11:59:25;10.18;;;2.63;;
9140;SDS011;46330;50.822;7.126;2023-12-20T12:01:53;7.55;;;2.50;;
9140;SDS011;46330;50.822;7.126;2023-12-20T12:04:27;6.65;;;2.20;;
9140;SDS011;46330;50.822;7.126;2023-12-20T12:06:55;8.38;;;2.38;;
9140;SDS011;46330;50.822;7.126;2023-12-20T12:09:23;9.48;;;2.42;;
9140;SDS011;46330;50.822;7.126;2023-12-20T12:11:52;10.90;;;2.60;;
9140;SDS011;46330;50.822;7.126;2023-12-20T12:14:20;11.52;;;2.30;;
9140;SDS011;46330;50.822;7.126;2023-12-20T12:16:48;11.10;;;2.35;;
9140;SDS011;46330;50.822;7.126;2023-12-20T12:19:20;7.70;;;2.10;;
9140;SDS011;46330;50.822;7.126;2023-12-20T12:21:48;6.38;;;2.30;;
9140;SDS011;46330;50.822;7.126;2023-12-20T12:24:20;11.10;;;3.17;;
9140;SDS011;46330;50.822;7.126;2023-12-20T12:26:53;7.00;;;2.05;;
9140;SDS011;46330;50.822;7.126;2023-12-20T12:29:24;15.18;;;2.97;;
9140;SDS011;46330;50.822;7.126;2023-12-20T12:31:52;17.65;;;3.28;;
9140;SDS011;46330;50.822;7.126;2023-12-20T12:34:20;12.15;;;2.50;;
9140;SDS011;46330;50.822;7.126;2023-12-20T12:36:48;8.50;;;2.10;;
9140;SDS011;46330;50.822;7.126;2023-12-20T12:39:17;10.35;;;2.50;;
9140;SDS011;46330;50.822;7.126;2023-12-20T12:41:45;6.15;;;1.85;;
9140;SDS011;46330;50.822;7.126;2023-12-20T12:44:15;4.25;;;2.15;;
9140;SDS011;46330;50.822;7.126;2023-12-20T12:46:44;10.02;;;2.50;;
9140;SDS011;46330;50.822;7.126;2023-12-20T12:49:12;7.10;;;2.15;;
9140;SDS011;46330;50.822;7.126;2023-12-20T12:51:41;6.65;;;2.10;;
9140;SDS011;46330;50.822;7.126;2023-12-20T12:54:09;8.68;;;2.47;;
9140;SDS011;46330;50.822;7.126;2023-12-20T12:56:39;11.18;;;2.20;;
9140;SDS011;46330;50.822;7.126;2023-12-20T12:59:07;10.27;;;2.35;;
9140;SDS011;46330;50.822;7.126;2023-12-20T13:01:36;10.48;;;2.58;;
9140;SDS011;46330;50.822;7.126;2023-12-20T13:04:05;7.22;;;2.15;;
9140;SDS011;46330;50.822;7.126;2023-12-20T13:06:37;6.38;;;1.95;;
9140;SDS011;46330;50.822;7.126;2023-12-20T13:09:07;5.32;;;2.28;;
9140;SDS011;46330;50.822;7.126;2023-12-20T13:11:36;8.18;;;2.67;;
9140;SDS011;46330;50.822;7.126;2023-12-20T13:14:04;2.90;;;1.73;;
9140;SDS011;46330;50.822;7.126;2023-12-20T13:16:32;5.15;;;2.30;;
9140;SDS011;46330;50.822;7.126;2023-12-20T13:19:02;7.38;;;2.47;;
9140;SDS011;46330;50.822;7.126;2023-12-20T13:21:30;7.57;;;2.22;;
9140;SDS011;46330;50.822;7.126;2023-12-20T13:23:58;8.90;;;2.20;;
9140;SDS011;46330;50.822;7.126;2023-12-20T13:26:26;8.35;;;2.58;;
9140;SDS011;46330;50.822;7.126;2023-12-20T13:28:54;8.48;;;2.45;;
9140;SDS011;46330;50.822;7.126;2023-12-20T13:31:23;8.98;;;2.55;;
9140;SDS011;46330;50.822;7.126;2023-12-20T13:33:51;11.07;;;2.80;;
9140;SDS011;46330;50.822;7.126;2023-12-20T13:36:21;9.95;;;2.95;;
9140;SDS011;46330;50.822;7.126;2023-12-20T13:38:49;10.10;;;3.30;;
9140;SDS011;46330;50.822;7.126;2023-12-20T13:41:17;5.82;;;2.63;;
9140;SDS011;46330;50.822;7.126;2023-12-20T13:43:45;9.88;;;3.08;;
9140;SDS011;46330;50.822;7.126;2023-12-20T13:46:13;10.07;;;2.90;;
9140;SDS011;46330;50.822;7.126;2023-12-20T13:48:41;11.50;;;2.55;;
9140;SDS011;46330;50.822;7.126;2023-12-20T13:51:09;11.05;;;2.58;;
9140;SDS011;46330;50.822;7.126;2023-12-20T13:53:39;10.18;;;3.42;;
9140;SDS011;46330;50.822;7.126;2023-12-20T13:56:07;10.35;;;3.33;;
9140;SDS011;46330;50.822;7.126;2023-12-20T13:58:35;9.75;;;3.38;;
9140;SDS011;46330;50.822;7.126;2023-12-20T14:01:04;8.73;;;2.85;;
9140;SDS011;46330;50.822;7.126;2023-12-20T14:03:32;11.02;;;2.80;;
9140;SDS011;46330;50.822;7.126;2023-12-20T14:06:00;9.93;;;2.65;;
9140;SDS011;46330;50.822;7.126;2023-12-20T14:08:29;11.38;;;3.05;;
9140;SDS011;46330;50.822;7.126;2023-12-20T14:10:58;10.63;;;2.97;;
9140;SDS011;46330;50.822;7.126;2023-12-20T14:13:27;9.10;;;3.25;;
9140;SDS011;46330;50.822;7.126;2023-12-20T14:15:56;7.15;;;2.75;;
9140;SDS011;46330;50.822;7.126;2023-12-20T14:18:25;7.47;;;2.85;;
9140;SDS011;46330;50.822;7.126;2023-12-20T14:20:53;8.35;;;2.80;;
9140;SDS011;46330;50.822;7.126;2023-12-20T14:23:21;14.40;;;2.95;;
9140;SDS011;46330;50.822;7.126;2023-12-20T14:25:50;11.65;;;2.72;;
9140;SDS011;46330;50.822;7.126;2023-12-20T14:28:20;11.15;;;2.80;;
9140;SDS011;46330;50.822;7.126;2023-12-20T14:30:48;5.85;;;2.15;;
9140;SDS011;46330;50.822;7.126;2023-12-20T14:33:17;5.57;;;2.25;;
9140;SDS011;46330;50.822;7.126;2023-12-20T14:35:47;5.68;;;2.47;;
9140;SDS011;46330;50.822;7.126;2023-12-20T14:38:15;9.02;;;2.40;;
9140;SDS011;46330;50.822;7.126;2023-12-20T14:40:44;7.95;;;2.58;;
9140;SDS011;46330;50.822;7.126;2023-12-20T14:43:12;6.22;;;1.90;;
9140;SDS011;46330;50.822;7.126;2023-12-20T14:45:41;6.90;;;2.90;;
9140;SDS011;46330;50.822;7.126;2023-12-20T14:48:10;4.65;;;1.88;;
9140;SDS011;46330;50.822;7.126;2023-12-20T14:50:38;6.55;;;2.10;;
9140;SDS011;46330;50.822;7.126;2023-12-20T14:53:07;6.10;;;2.00;;
9140;SDS011;46330;50.822;7.126;2023-12-20T14:55:35;8.00;;;2.72;;
9140;SDS011;46330;50.822;7.126;2023-12-20T14:58:03;4.60;;;2.03;;
9140;SDS011;46330;50.822;7.126;2023-12-20T15:00:31;7.85;;;2.15;;
9140;SDS011;46330;50.822;7.126;2023-12-20T15:03:01;12.90;;;2.50;;
9140;SDS011;46330;50.822;7.126;2023-12-20T15:05:30;6.93;;;2.28;;
9140;SDS011;46330;50.822;7.126;2023-12-20T15:07:58;5.90;;;2.03;;